Time;durP1;ratioP1;P1;durP2;ratioP2;P2;SDS_P1;SDS_P2;PMS_P1;PMS_P2;Temp;Humidity;BMP_temperature;BMP_pressure;BME280_temperature;BME280_humidity;BME280_pressure;Samples;Min_cycle;Max_cycle;Signal;HPM_P1;HPM_P2
2023/06/12 00:01:29;;;;;;;3.72;2.30;;;21.40;76.40;;;;;;4972011;28;20038;-66
2023/06/12 00:03:56;;;;;;;3.63;2.33;;;21.40;75.80;;;;;;4968408;28;20030;-66
2023/06/12 00:06:22;;;;;;;6.07;2.13;;;21.40;75.80;;;;;;4964272;28;20069;-66
2023/06/12 00:08:47;;;;;;;4.75;1.85;;;21.50;75.80;;;;;;4968464;28;20050;-66
2023/06/12 00:11:13;;;;;;;2.60;1.52;;;21.50;75.50;;;;;;4965109;28;20038;-66
2023/06/12 00:13:45;;;;;;;6.05;1.90;;;21.50;75.60;;;;;;4968622;28;20030;-66
2023/06/12 00:16:11;;;;;;;3.08;1.83;;;21.50;75.60;;;;;;4963796;28;20234;-66
2023/06/12 00:18:40;;;;;;;4.40;2.15;;;21.50;75.50;;;;;;4948386;28;20035;-66
2023/06/12 00:21:11;;;;;;;3.17;1.88;;;21.50;75.60;;;;;;4964518;28;20078;-66
2023/06/12 00:23:37;;;;;;;;;;;21.50;75.50;;;;;;4968130;28;20030;-65
2023/06/12 00:26:03;;;;;;;3.38;1.45;;;21.50;75.50;;;;;;4964230;28;19910;-66
2023/06/12 00:28:30;;;;;;;3.25;1.73;;;21.60;75.70;;;;;;4967911;28;20038;-67
2023/06/12 00:30:56;;;;;;;3.65;1.73;;;21.60;75.40;;;;;;4930850;28;20026;-66
2023/06/12 00:33:22;;;;;;;5.63;2.13;;;21.60;75.20;;;;;;4968009;28;20398;-66
2023/06/12 00:35:48;;;;;;;6.05;2.42;;;21.60;75.90;;;;;;4964005;28;20038;-66
2023/06/12 00:38:15;;;;;;;3.90;1.80;;;21.50;75.90;;;;;;4967720;28;20039;-65
2023/06/12 00:40:41;;;;;;;3.50;2.15;;;21.30;76.90;;;;;;4946961;28;20027;-66
2023/06/12 00:43:08;;;;;;;3.40;1.85;;;21.30;77.40;;;;;;4947595;28;20066;-66
2023/06/12 00:45:35;;;;;;;4.03;2.03;;;21.30;77.30;;;;;;4946713;28;20023;-66
2023/06/12 00:48:03;;;;;;;2.83;1.85;;;21.10;77.60;;;;;;4947442;28;20092;-66
2023/06/12 00:50:29;;;;;;;4.00;1.92;;;21.10;79.50;;;;;;4964077;28;20022;-66
2023/06/12 00:52:57;;;;;;;4.07;1.85;;;21.10;78.70;;;;;;4967501;28;20047;-67
2023/06/12 00:55:24;;;;;;;4.85;2.00;;;21.10;79.20;;;;;;4930490;28;20094;-66
2023/06/12 00:57:51;;;;;;;3.00;1.70;;;21.00;78.60;;;;;;4951037;28;20079;-66
2023/06/12 01:00:18;;;;;;;3.80;1.98;;;21.20;80.30;;;;;;4963561;28;20081;-67
2023/06/12 01:03:03;;;;;;;3.88;2.20;;;21.00;79.00;;;;;;4968679;28;20039;-66
2023/06/12 01:05:35;;;;;;;4.43;2.28;;;20.80;79.60;;;;;;4942975;28;20023;-66
2023/06/12 01:08:49;;;;;;;2.60;1.60;;;20.90;80.10;;;;;;4955920;28;20035;-66
2023/06/12 01:11:17;;;;;;;3.85;2.08;;;21.00;80.40;;;;;;4939630;29;20394;-67
2023/06/12 01:13:43;;;;;;;8.48;2.00;;;21.00;79.40;;;;;;4941300;28;20019;-66
2023/06/12 01:16:09;;;;;;;3.10;1.80;;;20.90;79.30;;;;;;4932410;29;20394;-66
2023/06/12 01:18:34;;;;;;;3.72;2.10;;;20.70;80.00;;;;;;4957077;28;20027;-65
2023/06/12 01:21:17;;;;;;;4.78;2.53;;;20.80;80.20;;;;;;4963653;28;20022;-72
2023/06/12 01:24:17;;;;;;;6.93;2.75;;;20.80;81.50;;;;;;4938348;28;20118;-68
2023/06/12 01:27:04;;;;;;;4.90;2.20;;;20.80;80.80;;;;;;4959876;28;20188;-66
2023/06/12 01:30:25;;;;;;;4.50;2.53;;;20.70;81.50;;;;;;4965845;28;20400;-67
2023/06/12 01:32:52;;;;;;;7.28;2.78;;;20.60;81.70;;;;;;4940009;29;20039;-67
2023/06/12 01:35:23;;;;;;;5.35;2.72;;;20.60;81.40;;;;;;4950189;28;20090;-66
2023/06/12 01:38:03;;;;;;;5.82;3.05;;;20.50;82.80;;;;;;4955103;28;20043;-67
2023/06/12 01:40:30;;;;;;;6.00;2.92;;;20.50;82.00;;;;;;4955577;28;20023;-67
2023/06/12 01:42:55;;;;;;;4.80;2.53;;;20.40;82.30;;;;;;4938671;28;20036;-67
2023/06/12 01:45:21;;;;;;;4.95;3.08;;;20.30;82.30;;;;;;4950213;28;20046;-66
2023/06/12 01:47:47;;;;;;;3.85;2.50;;;20.20;82.80;;;;;;4972017;28;20759;-66
2023/06/12 01:50:16;;;;;;;5.78;2.72;;;20.10;84.50;;;;;;4966776;28;20035;-66
2023/06/12 01:52:41;;;;;;;3.40;2.22;;;20.10;83.90;;;;;;4972535;28;20042;-67
2023/06/12 01:55:09;;;;;;;4.70;2.60;;;20.20;84.90;;;;;;4947974;28;20027;-66
2023/06/12 01:57:36;;;;;;;6.47;2.38;;;20.10;84.90;;;;;;4956433;28;20109;-67
2023/06/12 02:00:04;;;;;;;4.88;2.47;;;20.30;86.70;;;;;;4971651;28;20053;-66
2023/06/12 02:02:32;;;;;;;4.90;2.58;;;20.20;84.70;;;;;;4955382;28;20468;-67
2023/06/12 02:04:58;;;;;;;2.90;1.70;;;20.30;86.70;;;;;;4963710;28;20023;-66
2023/06/12 02:07:24;;;;;;;6.65;2.88;;;20.00;84.70;;;;;;4975291;28;20435;-66
2023/06/12 02:09:50;;;;;;;5.00;2.45;;;19.90;86.50;;;;;;4962892;28;20095;-66
2023/06/12 02:12:15;;;;;;;4.47;2.70;;;19.90;87.30;;;;;;4974373;28;20101;-66
2023/06/12 02:14:41;;;;;;;5.82;2.47;;;19.80;87.40;;;;;;4940509;28;20167;-66
2023/06/12 02:17:07;;;;;;;7.07;3.30;;;19.90;88.30;;;;;;4936499;29;20034;-66
2023/06/12 02:19:33;;;;;;;4.32;2.65;;;19.90;88.50;;;;;;4960037;28;20406;-65
2023/06/12 02:21:59;;;;;;;4.90;2.65;;;19.70;88.20;;;;;;4941138;29;20038;-66
2023/06/12 02:24:29;;;;;;;5.38;2.92;;;19.80;88.80;;;;;;4962375;28;20027;-65
2023/06/12 02:26:56;;;;;;;5.97;2.10;;;19.80;88.70;;;;;;4954482;28;20050;-66
2023/06/12 02:29:22;;;;;;;4.95;2.53;;;19.80;89.10;;;;;;4966675;28;20054;-66
2023/06/12 02:31:48;;;;;;;4.70;2.83;;;20.00;89.20;;;;;;4953093;28;20553;-67
2023/06/12 02:34:14;;;;;;;4.40;2.55;;;20.10;88.70;;;;;;4967423;28;20057;-67
2023/06/12 02:36:41;;;;;;;5.65;2.70;;;20.20;88.60;;;;;;4969064;28;20153;-67
2023/06/12 02:39:13;;;;;;;6.85;3.03;;;20.20;87.90;;;;;;4967823;28;20034;-67
2023/06/12 02:41:45;;;;;;;4.60;2.60;;;20.00;87.50;;;;;;4968798;28;20114;-67
2023/06/12 02:44:11;;;;;;;5.60;3.05;;;20.00;87.60;;;;;;4947278;28;20046;-67
2023/06/12 02:46:54;;;;;;;5.95;3.20;;;20.00;88.90;;;;;;4967986;28;20490;-67
2023/06/12 02:49:20;;;;;;;5.05;2.88;;;19.90;90.30;;;;;;4966297;28;20058;-67
2023/06/12 02:51:47;;;;;;;10.07;3.10;;;19.90;90.30;;;;;;4969669;28;20045;-67
2023/06/12 02:54:14;;;;;;;5.90;2.70;;;19.90;89.80;;;;;;4946837;28;20050;-66
2023/06/12 02:56:46;;;;;;;7.43;2.90;;;19.80;90.00;;;;;;4968538;28;20023;-67
2023/06/12 02:59:18;;;;;;;3.72;2.15;;;19.90;90.70;;;;;;4942238;28;20045;-67
2023/06/12 03:01:45;;;;;;;7.05;2.88;;;19.90;90.60;;;;;;4954453;28;20590;-67
2023/06/12 03:04:19;;;;;;;5.90;2.95;;;19.90;91.30;;;;;;4933168;28;20036;-67
2023/06/12 03:06:45;;;;;;;5.43;3.30;;;19.60;91.50;;;;;;4961020;28;20050;-66
2023/06/12 03:09:15;;;;;;;5.15;2.78;;;19.70;91.20;;;;;;4958554;28;20800;-66
2023/06/12 03:11:44;;;;;;;6.33;2.30;;;19.70;91.50;;;;;;4951720;28;20053;-66
2023/06/12 03:14:12;;;;;;;6.13;2.60;;;19.80;92.20;;;;;;4931288;28;20302;-67
2023/06/12 03:16:38;;;;;;;4.63;2.60;;;19.70;91.40;;;;;;4962396;28;20118;-66
2023/06/12 03:19:06;;;;;;;5.65;2.67;;;19.70;91.70;;;;;;4967650;28;20038;-66
2023/06/12 03:21:31;;;;;;;4.28;2.70;;;19.70;92.40;;;;;;4937078;29;20553;-66
2023/06/12 03:23:57;;;;;;;6.80;2.80;;;19.60;92.00;;;;;;4925671;28;20042;-67
2023/06/12 03:26:23;;;;;;;4.22;2.88;;;19.70;92.40;;;;;;4965797;28;20062;-67
2023/06/12 03:28:49;;;;;;;5.78;2.97;;;19.60;91.90;;;;;;4968785;28;20030;-67
2023/06/12 03:31:14;;;;;;;6.60;2.88;;;19.50;92.60;;;;;;4965275;28;20069;-67
2023/06/12 03:33:40;;;;;;;5.68;3.10;;;19.50;93.00;;;;;;4968666;28;20027;-67
2023/06/12 03:36:07;;;;;;;4.97;3.03;;;19.50;92.80;;;;;;4964828;28;20085;-67
2023/06/12 03:38:33;;;;;;;6.20;3.30;;;19.50;92.60;;;;;;4968475;28;20023;-67
2023/06/12 03:40:59;;;;;;;4.20;2.55;;;19.50;92.80;;;;;;4947887;28;20033;-67
2023/06/12 03:43:24;;;;;;;3.97;2.50;;;19.60;92.80;;;;;;4968539;28;20035;-67
2023/06/12 03:45:50;;;;;;;4.15;2.20;;;19.90;92.30;;;;;;4964741;28;20019;-67
2023/06/12 03:48:16;;;;;;;4.18;2.95;;;20.10;91.70;;;;;;4968366;28;20066;-67
2023/06/12 03:50:41;;;;;;;5.32;2.85;;;20.40;90.90;;;;;;4964670;28;20038;-66
2023/06/12 03:53:07;;;;;;;8.35;3.30;;;20.60;90.40;;;;;;4968394;28;20122;-67
2023/06/12 03:55:34;;;;;;;4.20;2.47;;;20.70;90.10;;;;;;4947356;28;20035;-66
2023/06/12 03:58:01;;;;;;;3.63;2.05;;;20.70;90.00;;;;;;4967928;28;20047;-67
2023/06/12 04:00:26;;;;;;;8.02;3.72;;;20.50;90.20;;;;;;4947580;28;20031;-67
2023/06/12 04:02:54;;;;;;;6.55;3.05;;;20.30;90.30;;;;;;4950982;28;20032;-66
2023/06/12 04:05:20;;;;;;;4.95;3.13;;;20.00;90.80;;;;;;4940646;29;20091;-67
2023/06/12 04:07:46;;;;;;;4.82;2.53;;;20.00;91.10;;;;;;4934708;29;20137;-66
2023/06/12 04:10:12;;;;;;;5.78;2.55;;;20.20;90.90;;;;;;4963554;28;20465;-66
2023/06/12 04:12:38;;;;;;;9.27;2.75;;;20.30;90.50;;;;;;4953081;28;20034;-67
2023/06/12 04:15:05;;;;;;;9.45;2.92;;;20.40;90.60;;;;;;4954856;28;20074;-67
2023/06/12 04:17:31;;;;;;;7.35;3.15;;;20.40;90.30;;;;;;4952457;29;20090;-64
2023/06/12 04:19:57;;;;;;;5.55;3.25;;;20.30;90.50;;;;;;4949328;28;20110;-64
2023/06/12 04:22:25;;;;;;;5.97;3.00;;;19.90;91.30;;;;;;4972327;28;20110;-64
2023/06/12 04:24:53;;;;;;;4.90;2.53;;;19.70;91.60;;;;;;4960015;28;20031;-65
2023/06/12 04:27:19;;;;;;;10.70;3.28;;;19.90;91.50;;;;;;4955278;28;20026;-64
2023/06/12 04:29:45;;;;;;;9.68;3.10;;;20.30;90.80;;;;;;4960988;28;20031;-65
2023/06/12 04:32:15;;;;;;;6.40;2.92;;;20.40;90.80;;;;;;4970848;28;20554;-64
2023/06/12 04:34:43;;;;;;;6.72;2.95;;;20.40;90.60;;;;;;4944496;23;20110;-69
2023/06/12 04:37:11;;;;;;;4.70;2.58;;;20.50;90.50;;;;;;4986578;28;20026;-68
2023/06/12 04:39:40;;;;;;;4.90;2.80;;;20.80;90.20;;;;;;4968472;28;20034;-68
2023/06/12 04:42:08;;;;;;;5.60;3.05;;;21.00;89.80;;;;;;4966546;28;20034;-70
2023/06/12 04:44:39;;;;;;;4.20;2.40;;;21.10;90.00;;;;;;4984750;28;20030;-69
2023/06/12 04:47:08;;;;;;;5.97;2.90;;;21.30;88.80;;;;;;4983228;28;20113;-69
2023/06/12 04:49:35;;;;;;;11.40;2.70;;;21.50;88.50;;;;;;4985282;28;20030;-69
2023/06/12 04:52:03;;;;;;;8.60;2.97;;;21.40;89.10;;;;;;4983358;28;20401;-69
2023/06/12 04:54:35;;;;;;;5.38;3.03;;;21.50;88.10;;;;;;4981178;28;20489;-69
2023/06/12 04:57:07;;;;;;;5.20;3.15;;;21.30;89.30;;;;;;4966339;28;20064;-67
2023/06/12 04:59:38;;;;;;;7.03;3.30;;;20.80;90.40;;;;;;4968205;28;20034;-67
2023/06/12 05:02:07;;;;;;;7.32;3.30;;;20.20;91.40;;;;;;4966508;28;20557;-69
2023/06/12 05:04:35;;;;;;;10.55;3.50;;;20.10;92.70;;;;;;4966787;28;20030;-68
2023/06/12 05:07:03;;;;;;;6.60;3.25;;;20.10;92.50;;;;;;4983304;28;20041;-67
2023/06/12 05:09:29;;;;;;;8.55;2.92;;;20.00;92.80;;;;;;4981184;28;20033;-65
2023/06/12 05:11:55;;;;;;;4.18;2.55;;;20.00;93.00;;;;;;4983050;28;20117;-69
2023/06/12 05:14:21;;;;;;;4.88;2.53;;;19.90;93.10;;;;;;4966150;28;20181;-66
2023/06/12 05:16:47;;;;;;;7.40;3.22;;;19.90;93.60;;;;;;4979226;28;20031;-67
2023/06/12 05:19:13;;;;;;;6.97;3.13;;;19.90;93.70;;;;;;4955992;28;20039;-68
2023/06/12 05:21:41;;;;;;;5.90;3.13;;;20.00;93.60;;;;;;4982995;28;20038;-69
2023/06/12 05:24:07;;;;;;;7.13;3.70;;;20.00;93.80;;;;;;4968012;28;20038;-69
2023/06/12 05:26:33;;;;;;;6.80;3.30;;;20.10;93.60;;;;;;4965286;28;20054;-70
2023/06/12 05:29:01;;;;;;;10.10;3.67;;;20.10;93.90;;;;;;4981149;28;20067;-69
2023/06/12 05:31:28;;;;;;;7.45;2.42;;;20.10;93.70;;;;;;4982723;28;20034;-68
2023/06/12 05:33:55;;;;;;;7.35;3.03;;;20.20;94.00;;;;;;4980639;28;20031;-69
2023/06/12 05:36:21;;;;;;;9.23;3.42;;;20.20;93.90;;;;;;4971251;28;20087;-69
2023/06/12 05:38:47;;;;;;;13.30;2.97;;;20.30;93.80;;;;;;4967897;28;20031;-68
2023/06/12 05:41:15;;;;;;;5.05;2.80;;;20.50;93.40;;;;;;4963474;28;20027;-69
2023/06/12 05:43:44;;;;;;;9.13;2.88;;;20.60;93.00;;;;;;4984774;28;20050;-77
2023/06/12 05:46:10;;;;;;;5.07;2.80;;;20.70;92.70;;;;;;4979712;28;20027;-72
2023/06/12 05:48:36;;;;;;;7.68;2.50;;;20.50;92.80;;;;;;4969853;28;20037;-74
2023/06/12 05:51:04;;;;;;;3.63;2.45;;;20.70;93.00;;;;;;4979953;28;20031;-75
2023/06/12 05:53:32;;;;;;;9.32;2.60;;;20.70;92.80;;;;;;4970917;28;20030;-75
2023/06/12 05:55:57;;;;;;;6.05;3.20;;;20.80;92.60;;;;;;4979467;28;20097;-76
2023/06/12 05:58:23;;;;;;;7.78;2.50;;;20.90;92.40;;;;;;4989054;28;20034;-73
2023/06/12 06:00:49;;;;;;;8.60;2.72;;;21.00;92.30;;;;;;4960561;28;20434;-77
2023/06/12 06:03:19;;;;;;;9.02;2.53;;;21.20;92.30;;;;;;4989464;28;20034;-76
2023/06/12 06:05:48;;;;;;;3.72;2.30;;;21.20;92.00;;;;;;4976132;28;20547;-79
2023/06/12 06:08:14;;;;;;;3.55;1.90;;;21.40;92.00;;;;;;4989846;28;20157;-62
2023/06/12 06:10:41;;;;;;;5.75;2.85;;;21.40;91.60;;;;;;4974920;28;20561;-62
2023/06/12 06:13:08;;;;;;;6.38;2.65;;;21.50;91.70;;;;;;4975464;28;20031;-61
2023/06/12 06:15:34;;;;;;;5.18;2.35;;;21.50;91.60;;;;;;4969879;28;20026;-61
2023/06/12 06:18:00;;;;;;;4.35;2.35;;;21.40;91.30;;;;;;4957167;28;20565;-61
2023/06/12 06:20:26;;;;;;;6.60;2.40;;;21.50;91.50;;;;;;4981205;28;20061;-61
2023/06/12 06:22:52;;;;;;;4.88;2.10;;;21.60;91.40;;;;;;4955517;28;20068;-61
2023/06/12 06:25:18;;;;;;;4.43;2.60;;;21.70;91.30;;;;;;4977535;28;20050;-61
2023/06/12 06:27:44;;;;;;;3.65;2.25;;;21.70;91.60;;;;;;4971951;28;20030;-61
2023/06/12 06:30:10;;;;;;;8.15;2.50;;;21.80;91.60;;;;;;4981846;28;20397;-61
2023/06/12 06:32:36;;;;;;;4.25;2.05;;;22.00;91.20;;;;;;4970581;28;20038;-61
2023/06/12 06:35:05;;;;;;;4.50;2.75;;;22.10;91.30;;;;;;4968503;28;20045;-70
2023/06/12 06:37:31;;;;;;;5.38;2.80;;;22.20;91.10;;;;;;4987398;28;20030;-69
2023/06/12 06:39:57;;;;;;;5.85;2.42;;;22.30;91.30;;;;;;4983438;28;20494;-69
2023/06/12 06:42:22;;;;;;;4.22;2.15;;;22.40;91.30;;;;;;4968653;28;20034;-69
2023/06/12 06:44:49;;;;;;;3.95;2.03;;;22.50;91.20;;;;;;4975221;28;20030;-70
2023/06/12 06:47:15;;;;;;;4.25;2.00;;;22.50;90.70;;;;;;4985563;28;20026;-64
2023/06/12 06:49:44;;;;;;;4.18;1.85;;;22.60;90.50;;;;;;4983747;28;20036;-65
2023/06/12 06:52:09;;;;;;;4.00;2.22;;;22.70;90.70;;;;;;4968322;28;20098;-62
2023/06/12 06:54:35;;;;;;;5.28;2.75;;;22.80;90.60;;;;;;4983325;28;20498;-64
2023/06/12 06:57:01;;;;;;;4.82;2.47;;;22.80;90.40;;;;;;4982102;28;20026;-65
2023/06/12 06:59:27;;;;;;;3.22;1.92;;;22.90;89.00;;;;;;4974854;28;20027;-65
2023/06/12 07:01:53;;;;;;;5.28;2.08;;;22.90;89.40;;;;;;4989461;28;20053;-65
2023/06/12 07:04:18;;;;;;;4.90;2.35;;;22.90;90.00;;;;;;4980947;28;20031;-64
2023/06/12 07:06:44;;;;;;;6.45;2.35;;;22.90;89.50;;;;;;4988400;28;20030;-65
2023/06/12 07:09:10;;;;;;;4.35;1.85;;;22.90;89.60;;;;;;4975401;28;20034;-64
2023/06/12 07:11:36;;;;;;;5.43;2.38;;;22.90;89.20;;;;;;4987081;28;20112;-65
2023/06/12 07:14:02;;;;;;;3.47;1.85;;;22.90;89.10;;;;;;4979359;28;20061;-65
2023/06/12 07:16:28;;;;;;;5.07;2.15;;;22.90;88.30;;;;;;4985983;28;20038;-64
2023/06/12 07:18:54;;;;;;;4.05;2.08;;;23.10;88.60;;;;;;4983961;28;20033;-64
2023/06/12 07:21:20;;;;;;;4.55;2.05;;;23.30;87.60;;;;;;4959530;28;20030;-66
2023/06/12 07:23:45;;;;;;;4.43;1.90;;;23.30;87.40;;;;;;4960739;28;20561;-64
2023/06/12 07:26:11;;;;;;;4.22;1.92;;;23.40;88.30;;;;;;4982832;28;20057;-64
2023/06/12 07:28:37;;;;;;;3.75;2.20;;;23.40;88.40;;;;;;4985793;28;20399;-65
2023/06/12 07:31:03;;;;;;;3.92;2.50;;;23.50;88.10;;;;;;4980041;28;20042;-65
2023/06/12 07:33:28;;;;;;;4.30;2.42;;;23.70;88.40;;;;;;4988929;28;20031;-65
2023/06/12 07:35:54;;;;;;;5.47;2.50;;;23.60;87.70;;;;;;4981113;28;20038;-64
2023/06/12 07:38:20;;;;;;;5.22;2.22;;;23.60;87.30;;;;;;4960695;28;20034;-65
2023/06/12 07:40:47;;;;;;;7.22;2.03;;;23.70;87.50;;;;;;4984558;28;20128;-65
2023/06/12 07:43:12;;;;;;;4.45;2.00;;;23.80;87.80;;;;;;4982626;28;20031;-65
2023/06/12 07:45:38;;;;;;;3.75;2.25;;;23.90;86.50;;;;;;4984108;28;20022;-65
2023/06/12 07:48:04;;;;;;;3.75;2.40;;;23.80;86.10;;;;;;4979333;28;20038;-65
2023/06/12 07:50:30;;;;;;;3.95;2.40;;;23.90;85.90;;;;;;4982958;28;20026;-65
2023/06/12 07:52:56;;;;;;;3.63;2.33;;;23.90;85.90;;;;;;4966297;28;20039;-65
2023/06/12 07:55:22;;;;;;;3.83;2.00;;;23.90;85.60;;;;;;4966495;28;20030;-64
2023/06/12 07:57:47;;;;;;;6.40;2.33;;;23.90;85.60;;;;;;4981208;28;20408;-66
2023/06/12 08:00:14;;;;;;;2.70;1.83;;;23.90;85.50;;;;;;4973855;28;20086;-64
2023/06/12 08:02:40;;;;;;;3.33;2.17;;;23.90;85.70;;;;;;4977824;28;20058;-65
2023/06/12 08:05:08;;;;;;;4.97;2.50;;;24.00;86.10;;;;;;4975539;28;20034;-63
2023/06/12 08:07:34;;;;;;;3.72;2.38;;;24.20;85.40;;;;;;4975912;28;20030;-63
2023/06/12 08:10:00;;;;;;;4.85;2.47;;;24.50;84.50;;;;;;4983208;28;20109;-63
2023/06/12 08:12:26;;;;;;;3.78;2.00;;;24.60;84.40;;;;;;4984077;28;20034;-64
2023/06/12 08:14:53;;;;;;;3.75;2.10;;;24.50;83.50;;;;;;4957987;28;20030;-64
2023/06/12 08:17:20;;;;;;;3.88;2.30;;;24.50;83.60;;;;;;4985662;28;20061;-64
2023/06/12 08:19:48;;;;;;;4.15;2.45;;;24.50;83.50;;;;;;4986450;28;20401;-64
2023/06/12 08:22:15;;;;;;;3.92;2.20;;;24.70;83.50;;;;;;4983846;28;20554;-64
2023/06/12 08:24:43;;;;;;;5.25;2.72;;;24.80;83.40;;;;;;4976684;28;20273;-64
2023/06/12 08:27:11;;;;;;;3.10;1.90;;;24.80;84.00;;;;;;4973092;28;20038;-64
2023/06/12 08:29:39;;;;;;;5.10;2.42;;;25.00;83.00;;;;;;4974941;28;20031;-64
2023/06/12 08:32:06;;;;;;;4.10;2.20;;;25.10;81.20;;;;;;4969168;28;20513;-64
2023/06/12 08:34:32;;;;;;;3.55;2.25;;;25.10;81.10;;;;;;4973350;28;20045;-74
2023/06/12 08:36:58;;;;;;;4.40;2.03;;;25.10;81.80;;;;;;4970974;28;20042;-74
2023/06/12 08:39:24;;;;;;;4.05;2.25;;;25.10;81.00;;;;;;4977222;28;20134;-75
2023/06/12 08:42:07;;;;;;;5.97;2.50;;;25.30;80.60;;;;;;4987473;28;20505;-75
2023/06/12 08:44:34;;;;;;;9.18;2.20;;;25.40;79.30;;;;;;4979583;28;20039;-75
2023/06/12 08:47:02;;;;;;;3.40;2.13;;;25.50;79.90;;;;;;4955374;28;20023;-75
2023/06/12 08:49:30;;;;;;;5.57;2.13;;;25.70;79.40;;;;;;4953676;28;20080;-75
2023/06/12 08:51:56;;;;;;;4.35;2.05;;;25.60;79.50;;;;;;4980008;28;20120;-75
2023/06/12 08:54:22;;;;;;;5.28;2.45;;;25.70;79.80;;;;;;4975916;28;20110;-75
2023/06/12 08:56:50;;;;;;;3.50;1.90;;;25.70;80.10;;;;;;4969936;28;20090;-75
2023/06/12 08:59:16;;;;;;;4.05;2.42;;;25.70;79.80;;;;;;4965422;28;20509;-75
2023/06/12 09:01:45;;;;;;;4.40;2.03;;;25.80;79.60;;;;;;4986383;28;20174;-75
2023/06/12 09:05:03;;;;;;;4.10;2.15;;;26.00;79.10;;;;;;4979300;28;20057;-75
2023/06/12 09:07:35;;;;;;;3.35;1.90;;;26.20;78.60;;;;;;4968071;28;20043;-75
2023/06/12 09:10:01;;;;;;;4.63;2.08;;;26.00;77.40;;;;;;4963761;28;20038;-75
2023/06/12 09:12:29;;;;;;;3.58;2.13;;;26.00;78.50;;;;;;4988975;28;20030;-75
2023/06/12 09:14:59;;;;;;;3.88;2.10;;;25.90;78.30;;;;;;4961987;28;20572;-75
2023/06/12 09:17:29;;;;;;;5.28;2.40;;;25.90;78.50;;;;;;4967317;28;20054;-75
2023/06/12 09:19:55;;;;;;;3.80;1.92;;;26.20;78.70;;;;;;4970296;28;20114;-74
2023/06/12 09:22:21;;;;;;;4.05;2.15;;;26.30;76.20;;;;;;4967915;28;20054;-74
2023/06/12 09:24:47;;;;;;;3.03;2.20;;;26.40;75.90;;;;;;4986380;28;20034;-74
2023/06/12 09:27:13;;;;;;;3.33;1.77;;;26.40;75.60;;;;;;4985319;28;20038;-74
2023/06/12 09:29:40;;;;;;;4.55;2.17;;;26.60;74.60;;;;;;4968096;28;20478;-73
2023/06/12 09:32:14;;;;;;;4.88;2.28;;;26.60;74.30;;;;;;4986468;28;20161;-74
2023/06/12 09:34:49;;;;;;;3.45;2.25;;;26.40;74.90;;;;;;4967966;28;20035;-75
2023/06/12 09:37:16;;;;;;;3.58;2.10;;;26.50;75.00;;;;;;4968295;28;20510;-74
2023/06/12 09:39:43;;;;;;;6.10;2.35;;;26.40;75.90;;;;;;4985616;28;20088;-75
2023/06/12 09:42:11;;;;;;;3.60;1.90;;;26.70;76.30;;;;;;4968890;28;20027;-75
2023/06/12 09:44:39;;;;;;;3.90;1.90;;;27.00;75.20;;;;;;4967360;28;20153;-75
2023/06/12 09:47:05;;;;;;;6.07;2.22;;;27.20;72.40;;;;;;4969634;28;20031;-74
2023/06/12 09:49:33;;;;;;;5.20;2.03;;;26.80;71.50;;;;;;4952475;28;20093;-74
2023/06/12 09:52:02;;;;;;;4.00;2.20;;;26.80;71.80;;;;;;4958209;28;20040;-74
2023/06/12 09:54:31;;;;;;;4.80;2.80;;;26.90;73.00;;;;;;4970251;28;20042;-75
2023/06/12 09:57:00;;;;;;;3.35;1.95;;;27.20;71.60;;;;;;4991342;28;20038;-74
2023/06/12 09:59:32;;;;;;;4.68;2.35;;;27.50;70.60;;;;;;4970234;28;20026;-75
2023/06/12 10:02:09;;;;;;;3.95;2.17;;;27.60;69.60;;;;;;4990806;28;20091;-74
2023/06/12 10:04:45;;;;;;;5.22;2.70;;;27.30;68.90;;;;;;4971447;28;20105;-74
2023/06/12 10:07:28;;;;;;;4.25;2.25;;;27.60;69.20;;;;;;4972773;28;20041;-74
2023/06/12 10:09:55;;;;;;;3.47;1.70;;;27.70;70.10;;;;;;4973709;28;20033;-74
2023/06/12 10:12:23;;;;;;;10.90;2.30;;;27.70;68.70;;;;;;4965767;28;20502;-75
2023/06/12 10:14:52;;;;;;;4.43;1.92;;;27.90;69.00;;;;;;4986575;28;20070;-74
2023/06/12 10:17:22;;;;;;;2.83;2.03;;;27.70;69.10;;;;;;4969309;28;20030;-75
2023/06/12 10:19:50;;;;;;;4.63;2.55;;;27.50;69.60;;;;;;4978989;28;20027;-75
2023/06/12 10:22:16;;;;;;;5.35;2.47;;;27.90;70.90;;;;;;4964293;28;20125;-75
2023/06/12 10:24:42;;;;;;;3.95;2.38;;;28.10;67.70;;;;;;4988776;28;20471;-74
2023/06/12 10:27:11;;;;;;;5.53;2.17;;;28.20;67.30;;;;;;4989377;28;20300;-74
2023/06/12 10:29:39;;;;;;;8.48;3.10;;;27.70;67.40;;;;;;4971125;28;20137;-75
2023/06/12 10:32:15;;;;;;;6.05;2.25;;;28.10;68.20;;;;;;4972822;28;20034;-75
2023/06/12 10:34:44;;;;;;;2.80;1.98;;;28.40;70.50;;;;;;4970868;28;20034;-75
2023/06/12 10:40:16;;;;;;;8.57;2.28;;;29.00;65.80;;;;;;4988111;28;20387;-68
2023/06/12 10:42:54;;;;;;;8.18;2.28;;;28.50;65.00;;;;;;4991497;28;20106;-68
2023/06/12 10:45:23;;;;;;;4.15;2.50;;;28.50;64.70;;;;;;4993316;28;20030;-68
2023/06/12 10:48:02;;;;;;;4.50;2.05;;;28.30;64.90;;;;;;4987980;28;20109;-68
2023/06/12 10:50:48;;;;;;;3.53;2.05;;;27.90;64.80;;;;;;4967113;28;20389;-68
2023/06/12 10:53:29;;;;;;;4.57;2.25;;;27.80;64.30;;;;;;4956655;28;20394;-68
2023/06/12 10:56:06;;;;;;;6.65;2.83;;;27.60;65.00;;;;;;4956196;28;20049;-68
2023/06/12 10:58:56;;;;;;;5.07;1.92;;;27.30;65.70;;;;;;4973513;28;20050;-68
2023/06/12 11:01:23;;;;;;;4.13;2.10;;;27.80;65.20;;;;;;4948347;28;20039;-68
2023/06/12 11:03:50;;;;;;;3.88;2.20;;;28.40;66.20;;;;;;4972799;28;20442;-68
2023/06/12 11:06:16;;;;;;;4.03;2.03;;;28.40;63.90;;;;;;4956210;28;20080;-67
2023/06/12 11:08:47;;;;;;;6.63;2.38;;;28.60;63.20;;;;;;4955907;28;20597;-68
2023/06/12 11:11:15;;;;;;;5.93;1.92;;;29.00;62.10;;;;;;4973675;28;20038;-68
2023/06/12 11:13:45;;;;;;;4.03;2.20;;;29.40;61.90;;;;;;4972759;28;20070;-67
2023/06/12 11:16:21;;;;;;;3.70;2.20;;;29.70;60.70;;;;;;4952643;29;20046;-68
2023/06/12 11:19:02;;;;;;;3.30;2.25;;;29.40;59.80;;;;;;4965454;28;20033;-68
2023/06/12 11:21:28;;;;;;;4.05;2.13;;;29.60;62.00;;;;;;4951564;28;20037;-68
2023/06/12 11:23:55;;;;;;;5.45;2.50;;;29.80;59.20;;;;;;4951723;28;20027;-68
2023/06/12 11:26:21;;;;;;;6.80;2.20;;;30.10;58.50;;;;;;4948314;28;20041;-68
2023/06/12 11:28:48;;;;;;;4.93;2.50;;;30.50;58.50;;;;;;4972753;28;20106;-68
2023/06/12 11:31:14;;;;;;;4.10;1.98;;;29.80;58.00;;;;;;4956095;28;20398;-68
2023/06/12 11:33:40;;;;;;;4.30;2.20;;;29.50;58.80;;;;;;4972595;28;20034;-68
2023/06/12 11:36:06;;;;;;;4.05;2.05;;;29.20;58.60;;;;;;4973137;28;20053;-68
2023/06/12 11:38:32;;;;;;;3.65;2.25;;;29.50;59.20;;;;;;4971457;28;20084;-68
2023/06/12 11:40:58;;;;;;;4.78;2.20;;;29.80;58.70;;;;;;4972253;28;20035;-68
2023/06/12 11:43:26;;;;;;;3.88;1.90;;;29.60;58.80;;;;;;4953009;28;20058;-70
2023/06/12 11:45:54;;;;;;;4.15;2.03;;;29.80;58.30;;;;;;4938199;28;20101;-70
2023/06/12 11:48:21;;;;;;;4.05;2.30;;;30.70;58.20;;;;;;4946119;28;20035;-70
2023/06/12 11:50:51;;;;;;;3.70;2.35;;;30.60;59.20;;;;;;4954892;28;20026;-69
2023/06/12 11:53:18;;;;;;;5.38;2.20;;;30.10;58.30;;;;;;4954845;28;20221;-70
2023/06/12 11:55:48;;;;;;;4.57;2.17;;;30.20;57.90;;;;;;4971708;28;20027;-70
2023/06/12 11:58:14;;;;;;;;;;;30.10;58.40;;;;;;4954405;28;20041;-70
2023/06/12 12:00:40;;;;;;;4.93;1.77;;;30.40;57.20;;;;;;4971466;28;20281;-69
2023/06/12 12:03:09;;;;;;;4.28;2.30;;;29.60;58.70;;;;;;4953662;28;20041;-68
2023/06/12 12:05:37;;;;;;;6.35;2.00;;;29.40;57.30;;;;;;4971113;28;20019;-69
2023/06/12 12:08:05;;;;;;;3.63;2.17;;;29.60;57.70;;;;;;4933963;28;20058;-68
2023/06/12 12:10:35;;;;;;;3.47;1.83;;;29.60;56.20;;;;;;4949024;29;20110;-69
2023/06/12 12:13:03;;;;;;;6.63;2.10;;;29.30;55.90;;;;;;4940232;28;20490;-72
2023/06/12 12:15:40;;;;;;;5.38;2.40;;;30.00;55.50;;;;;;4950441;29;20051;-68
2023/06/12 12:18:16;;;;;;;4.25;2.35;;;30.40;55.10;;;;;;4949874;28;20121;-70
2023/06/12 12:20:43;;;;;;;4.35;2.08;;;30.80;55.90;;;;;;4949781;28;20033;-71
2023/06/12 12:23:12;;;;;;;4.95;1.98;;;30.50;55.70;;;;;;4970402;28;20035;-71
2023/06/12 12:25:40;;;;;;;4.50;2.10;;;30.80;55.60;;;;;;4971480;28;20023;-68
2023/06/12 12:28:07;;;;;;;5.43;1.98;;;31.60;55.20;;;;;;4933603;28;20149;-69
2023/06/12 12:30:33;;;;;;;4.72;2.30;;;31.20;54.70;;;;;;4971485;28;20126;-68
2023/06/12 12:32:59;;;;;;;3.50;1.80;;;31.60;54.30;;;;;;4953425;28;20092;-68
2023/06/12 12:35:26;;;;;;;3.55;1.95;;;31.80;54.40;;;;;;4954067;28;20062;-69
2023/06/12 12:37:54;;;;;;;3.92;2.20;;;31.60;55.00;;;;;;4912890;28;1091623;-68
2023/06/12 12:40:23;;;;;;;5.00;2.78;;;31.40;55.50;;;;;;4927714;29;20023;-68
2023/06/12 12:42:50;;;;;;;5.78;2.00;;;30.60;54.40;;;;;;4956280;28;20029;-69
2023/06/12 12:45:18;;;;;;;4.00;2.05;;;30.40;54.10;;;;;;4971710;28;20034;-69
2023/06/12 12:47:47;;;;;;;2.90;1.65;;;30.70;55.00;;;;;;4954155;28;20479;-68
2023/06/12 12:50:18;;;;;;;4.53;2.10;;;31.30;55.00;;;;;;4954467;28;20657;-68
2023/06/12 12:52:44;;;;;;;3.70;1.90;;;31.50;52.70;;;;;;4954349;28;20042;-69
2023/06/12 12:55:11;;;;;;;3.00;1.85;;;31.90;52.10;;;;;;4954030;28;20035;-68
2023/06/12 12:57:39;;;;;;;3.97;2.08;;;31.40;52.40;;;;;;4970765;28;20399;-71